Time;durP1;ratioP1;P1;durP2;ratioP2;P2;SDS_P1;SDS_P2;PMS_P1;PMS_P2;Temp;Humidity;BMP_temperature;BMP_pressure;BME280_temperature;BME280_humidity;BME280_pressure;Samples;Min_cycle;Max_cycle;Signal;HPM_P1;HPM_P2
2024/01/23 00:01:45;;;;;;;1.35;1.25;;;;;;;;;;5052648;28;20066;-82
2024/01/23 00:04:29;;;;;;;0.85;0.85;;;;;;;;;;5023663;28;20037;-85
2024/01/23 00:07:05;;;;;;;0.90;0.88;;;;;;;;;;5032353;28;20055;-85
2024/01/23 00:09:53;;;;;;;0.95;0.95;;;;;;;;;;5033813;28;20029;-85
2024/01/23 00:12:23;;;;;;;2.20;0.82;;;;;;;;;;5032290;28;20040;-83
2024/01/23 00:14:54;;;;;;;0.82;0.82;;;;;;;;;;5022362;28;20036;-83
2024/01/23 00:17:28;;;;;;;1.55;1.45;;;;;;;;;;5030307;28;20024;-82
2024/01/23 00:20:52;;;;;;;0.32;0.32;;;;;;;;;;5039627;28;20036;-87
2024/01/23 00:24:26;;;;;;;1.27;1.25;;;;;;;;;;4980368;28;20041;-85
2024/01/23 00:27:48;;;;;;;0.60;0.60;;;;;;;;;;5021317;28;20382;-85
2024/01/23 00:31:21;;;;;;;0.35;0.35;;;;;;;;;;4844688;29;20072;-85
2024/01/23 00:34:30;;;;;;;0.28;0.28;;;;;;;;;;4807539;29;20574;-86
2024/01/23 00:37:35;;;;;;;;;;;;;;;;;;;;;
2024/01/23 00:40:12;;;;;;;1.02;0.47;;;;;;;;;;4887273;29;20042;-85
2024/01/23 00:42:46;;;;;;;0.20;0.20;;;;;;;;;;5004520;28;20038;-81
2024/01/23 00:45:15;;;;;;;0.55;0.55;;;;;;;;;;4992394;28;20080;-84
2024/01/23 00:47:56;;;;;;;0.22;0.22;;;;;;;;;;4972504;28;20088;-84
2024/01/23 00:50:45;;;;;;;0.25;0.25;;;;;;;;;;4987463;28;20122;-84
2024/01/23 00:53:11;;;;;;;0.65;0.65;;;;;;;;;;5010967;28;20143;-83
2024/01/23 00:55:36;;;;;;;0.88;0.88;;;;;;;;;;4991159;28;20490;-86
2024/01/23 00:58:22;;;;;;;0.20;0.20;;;;;;;;;;4995235;28;20044;-84
2024/01/23 01:00:51;;;;;;;0.68;0.50;;;;;;;;;;5011792;28;20034;-82
2024/01/23 01:03:22;;;;;;;0.30;0.30;;;;;;;;;;4993929;28;20033;-83
2024/01/23 01:05:56;;;;;;;0.20;0.20;;;;;;;;;;4994432;28;20098;-82
2024/01/23 01:08:33;;;;;;;0.68;0.68;;;;;;;;;;5028541;28;20033;-82
2024/01/23 01:11:09;;;;;;;0.20;0.20;;;;;;;;;;5038014;28;20028;-82
2024/01/23 01:13:41;;;;;;;2.67;0.50;;;;;;;;;;5033994;28;20501;-82
2024/01/23 01:16:14;;;;;;;0.52;0.47;;;;;;;;;;5020048;28;20676;-83
2024/01/23 01:19:04;;;;;;;;;;;;;;;;;;;;;
2024/01/23 01:22:02;;;;;;;0.30;0.30;;;;;;;;;;5038228;28;20404;-84
2024/01/23 01:24:47;;;;;;;0.90;0.60;;;;;;;;;;5040293;28;20578;-84
2024/01/23 01:27:13;;;;;;;0.20;0.20;;;;;;;;;;5049527;28;20517;-83
2024/01/23 01:29:51;;;;;;;0.30;0.30;;;;;;;;;;5030212;28;20033;-84
2024/01/23 01:32:27;;;;;;;0.57;0.57;;;;;;;;;;5049597;28;20115;-84
2024/01/23 01:35:01;;;;;;;0.60;0.60;;;;;;;;;;5033608;28;20535;-83
2024/01/23 01:37:50;;;;;;;4.85;2.33;;;;;;;;;;5051705;28;20074;-82
2024/01/23 01:40:27;;;;;;;0.20;0.20;;;;;;;;;;5050814;28;20025;-84
2024/01/23 01:43:40;;;;;;;0.75;0.75;;;;;;;;;;5031550;28;20047;-83
2024/01/23 01:49:22;;;;;;;0.70;0.70;;;;;;;;;;5052023;28;20724;-83
2024/01/23 01:51:58;;;;;;;0.35;0.35;;;;;;;;;;5053243;28;20025;-83
2024/01/23 01:54:51;;;;;;;1.75;0.90;;;;;;;;;;5039825;28;20074;-84
2024/01/23 01:58:12;;;;;;;0.47;0.47;;;;;;;;;;4965902;28;20130;-84
2024/01/23 02:00:50;;;;;;;0.22;0.22;;;;;;;;;;5056189;28;20064;-84
2024/01/23 02:03:23;;;;;;;0.43;0.43;;;;;;;;;;5055487;28;20031;-83
2024/01/23 02:05:55;;;;;;;0.30;0.30;;;;;;;;;;5036217;28;20029;-83
2024/01/23 02:08:47;;;;;;;0.50;0.50;;;;;;;;;;5037045;28;20025;-83
2024/01/23 02:11:15;;;;;;;0.50;0.50;;;;;;;;;;5036134;28;20610;-82
2024/01/23 02:14:26;;;;;;;0.30;0.30;;;;;;;;;;5034758;28;20119;-84
2024/01/23 02:17:50;;;;;;;0.20;0.20;;;;;;;;;;5033357;28;20029;-83
2024/01/23 02:20:24;;;;;;;0.57;0.57;;;;;;;;;;5049120;28;20099;-82
2024/01/23 02:23:48;;;;;;;0.20;0.20;;;;;;;;;;5053181;28;20049;-82
2024/01/23 02:27:16;;;;;;;0.52;0.52;;;;;;;;;;5011088;28;20046;-82
2024/01/23 02:30:11;;;;;;;0.25;0.25;;;;;;;;;;4967080;28;20069;-82
2024/01/23 02:33:16;;;;;;;;;;;;;;;;;;;;;
2024/01/23 02:35:42;;;;;;;0.50;0.50;;;;;;;;;;4974245;28;20683;-82
2024/01/23 02:38:21;;;;;;;0.60;0.60;;;;;;;;;;4972486;28;20118;-85
2024/01/23 02:41:03;;;;;;;0.20;0.20;;;;;;;;;;5001156;28;20069;-82
2024/01/23 02:43:42;;;;;;;0.28;0.28;;;;;;;;;;4995576;28;20056;-82
2024/01/23 02:46:17;;;;;;;0.17;0.17;;;;;;;;;;4995100;28;20038;-82
2024/01/23 02:48:50;;;;;;;0.32;0.32;;;;;;;;;;5009203;28;20068;-83
2024/01/23 02:51:21;;;;;;;0.50;0.50;;;;;;;;;;5012438;28;20042;-83
2024/01/23 02:54:12;;;;;;;1.98;0.70;;;;;;;;;;5012383;28;20026;-81
2024/01/23 02:56:55;;;;;;;5.35;1.55;;;;;;;;;;5006677;28;20798;-84
2024/01/23 02:59:46;;;;;;;0.63;0.63;;;;;;;;;;5040900;28;20061;-83
2024/01/23 03:02:33;;;;;;;0.20;0.20;;;;;;;;;;5047469;28;20473;-84
2024/01/23 03:05:52;;;;;;;0.45;0.45;;;;;;;;;;5036555;28;20035;-85
2024/01/23 03:12:44;;;;;;;0.20;0.20;;;;;;;;;;4942624;29;20409;-86
2024/01/23 03:19:47;;;;;;;0.68;0.68;;;;;;;;;;4886048;29;20040;-83
2024/01/23 03:29:12;;;;;;;0.25;0.25;;;;;;;;;;4853799;29;20484;-84
2024/01/23 03:31:56;;;;;;;;;;;;;;;;;;;;;
2024/01/23 03:34:37;;;;;;;0.13;0.13;;;;;;;;;;4844435;29;20046;-85
2024/01/23 03:37:32;;;;;;;0.28;0.28;;;;;;;;;;4831435;29;20046;-85
2024/01/23 03:40:08;;;;;;;0.20;0.20;;;;;;;;;;4846731;29;20746;-84
2024/01/23 03:42:59;;;;;;;0.50;0.50;;;;;;;;;;4843695;29;20037;-84
2024/01/23 03:45:56;;;;;;;0.20;0.20;;;;;;;;;;4855919;29;20860;-83
2024/01/23 03:48:24;;;;;;;0.38;0.38;;;;;;;;;;4912032;29;20548;-84
2024/01/23 03:51:00;;;;;;;0.40;0.30;;;;;;;;;;4913242;29;20095;-84
2024/01/23 03:56:59;;;;;;;0.40;0.40;;;;;;;;;;4993179;28;20122;-86
2024/01/23 03:59:34;;;;;;;0.35;0.35;;;;;;;;;;5010333;28;20049;-85
2024/01/23 04:02:30;;;;;;;0.20;0.20;;;;;;;;;;5025978;28;20033;-85
2024/01/23 04:05:04;;;;;;;0.77;0.77;;;;;;;;;;5032201;28;20562;-84
2024/01/23 04:07:35;;;;;;;1.52;1.02;;;;;;;;;;5020129;28;20099;-84
2024/01/23 04:10:57;;;;;;;0.60;0.60;;;;;;;;;;5016869;28;20128;-85
2024/01/23 04:14:04;;;;;;;0.75;0.50;;;;;;;;;;5019557;28;20481;-86
2024/01/23 04:16:32;;;;;;;0.20;0.20;;;;;;;;;;5036329;28;20052;-83
2024/01/23 04:21:59;;;;;;;0.88;0.88;;;;;;;;;;5045415;28;20128;-85
2024/01/23 04:24:53;;;;;;;0.52;0.52;;;;;;;;;;5058025;28;20131;-83
2024/01/23 04:27:34;;;;;;;0.20;0.20;;;;;;;;;;5060512;28;20035;-85
2024/01/23 04:30:10;;;;;;;0.20;0.20;;;;;;;;;;5063672;28;20044;-84
2024/01/23 04:32:41;;;;;;;1.15;1.05;;;;;;;;;;5060472;28;20024;-84
2024/01/23 04:38:40;;;;;;;0.50;0.50;;;;;;;;;;5053510;28;20484;-85
2024/01/23 04:41:22;;;;;;;0.40;0.40;;;;;;;;;;5064355;28;20032;-85
2024/01/23 04:44:17;;;;;;;0.30;0.30;;;;;;;;;;5064458;28;20036;-85
2024/01/23 04:50:18;;;;;;;;;;;;;;;;;;;;;
2024/01/23 04:54:18;;;;;;;;;;;;;;;;;;;;;
2024/01/23 04:57:14;;;;;;;0.38;0.38;;;;;;;;;;5062334;28;20031;-85
2024/01/23 04:59:26;;;;;;;0.30;0.30;;;;;;;;;;5065756;28;20035;-86
2024/01/23 05:02:29;;;;;;;0.45;0.45;;;;;;;;;;5074206;28;20395;-84
2024/01/23 05:11:55;;;;;;;1.10;1.05;;;;;;;;;;5007691;28;20041;-84
2024/01/23 05:14:31;;;;;;;;;;;;;;;;;;;;;
2024/01/23 05:21:09;;;;;;;0.20;0.20;;;;;;;;;;5056768;28;20036;-85
2024/01/23 05:23:56;;;;;;;;;;;;;;;;;;;;;
2024/01/23 05:26:28;;;;;;;0.40;0.40;;;;;;;;;;5067752;28;20368;-82
2024/01/23 05:32:48;;;;;;;0.45;0.45;;;;;;;;;;5015810;28;20041;-84
2024/01/23 05:35:39;;;;;;;0.30;0.30;;;;;;;;;;5015493;28;20413;-85
2024/01/23 05:45:23;;;;;;;0.20;0.20;;;;;;;;;;4975625;28;21083;-84
2024/01/23 05:51:26;;;;;;;0.40;0.40;;;;;;;;;;4976396;28;20066;-83
2024/01/23 05:55:01;;;;;;;0.45;0.40;;;;;;;;;;4943424;28;20038;-83
2024/01/23 06:03:54;;;;;;;0.35;0.35;;;;;;;;;;5043463;28;20250;-85
2024/01/23 06:06:19;;;;;;;0.63;0.52;;;;;;;;;;5063149;28;20754;-83
2024/01/23 06:08:46;;;;;;;0.32;0.32;;;;;;;;;;5071218;28;20032;-84
2024/01/23 06:11:13;;;;;;;1.58;0.95;;;;;;;;;;5076091;28;20021;-83
2024/01/23 06:13:39;;;;;;;2.20;2.10;;;;;;;;;;5057567;28;20468;-84
2024/01/23 06:16:05;;;;;;;0.38;0.38;;;;;;;;;;5072903;28;20024;-84
2024/01/23 06:18:31;;;;;;;0.98;0.98;;;;;;;;;;5071324;28;20025;-82
2024/01/23 06:20:57;;;;;;;0.73;0.68;;;;;;;;;;5071366;28;20058;-86
2024/01/23 06:23:24;;;;;;;0.77;0.65;;;;;;;;;;5054984;28;20057;-83
2024/01/23 06:25:50;;;;;;;1.80;1.70;;;;;;;;;;5056451;28;20058;-85
2024/01/23 06:28:16;;;;;;;2.35;1.90;;;;;;;;;;5055297;28;20112;-85
2024/01/23 06:30:41;;;;;;;5.70;2.35;;;;;;;;;;5069099;28;20082;-85
2024/01/23 06:33:07;;;;;;;3.70;3.42;;;;;;;;;;5052885;28;20640;-85
2024/01/23 06:35:32;;;;;;;3.53;3.20;;;;;;;;;;5055545;28;20039;-86
2024/01/23 06:37:58;;;;;;;5.60;4.60;;;;;;;;;;5069891;28;20052;-89
2024/01/23 06:40:23;;;;;;;3.88;3.63;;;;;;;;;;5071433;28;20040;-84
2024/01/23 06:42:49;;;;;;;3.25;2.95;;;;;;;;;;5053671;28;20032;-85
2024/01/23 06:45:14;;;;;;;3.03;2.80;;;;;;;;;;5077054;28;20028;-83
2024/01/23 06:47:40;;;;;;;2.28;2.05;;;;;;;;;;5074765;28;20047;-85
2024/01/23 06:50:06;;;;;;;4.88;3.42;;;;;;;;;;5055947;28;20035;-83
2024/01/23 06:52:31;;;;;;;10.77;4.13;;;;;;;;;;5072707;28;20028;-85
2024/01/23 06:54:56;;;;;;;4.90;4.57;;;;;;;;;;5057188;28;20025;-84
2024/01/23 06:57:22;;;;;;;3.33;3.03;;;;;;;;;;5065339;28;20020;-85
2024/01/23 06:59:47;;;;;;;4.00;3.70;;;;;;;;;;5054348;28;20153;-84
2024/01/23 07:02:13;;;;;;;1.88;1.67;;;;;;;;;;5056980;28;20360;-84
2024/01/23 07:04:40;;;;;;;2.42;2.22;;;;;;;;;;5071607;28;21134;-84
2024/01/23 07:07:05;;;;;;;4.25;3.60;;;;;;;;;;5078821;28;20058;-84
2024/01/23 07:09:31;;;;;;;8.13;3.42;;;;;;;;;;5057517;28;20024;-84
2024/01/23 07:11:56;;;;;;;8.68;6.40;;;;;;;;;;5075246;28;20506;-83
2024/01/23 07:14:22;;;;;;;5.03;4.50;;;;;;;;;;5072783;28;20024;-84
2024/01/23 07:16:47;;;;;;;2.42;2.22;;;;;;;;;;5079300;28;20486;-84
2024/01/23 07:19:13;;;;;;;2.75;2.55;;;;;;;;;;5063465;28;20051;-85
2024/01/23 07:21:40;;;;;;;3.78;3.45;;;;;;;;;;5058772;28;20235;-84
2024/01/23 07:24:07;;;;;;;3.63;3.33;;;;;;;;;;5058663;28;20562;-84
2024/01/23 07:26:32;;;;;;;5.07;3.75;;;;;;;;;;5059749;28;20099;-84
2024/01/23 07:28:57;;;;;;;2.63;2.42;;;;;;;;;;5077675;28;20104;-84
2024/01/23 07:31:23;;;;;;;4.43;3.58;;;;;;;;;;5073625;28;20040;-84
2024/01/23 07:33:48;;;;;;;7.20;3.65;;;;;;;;;;5076155;28;20046;-84
2024/01/23 07:36:14;;;;;;;5.10;4.63;;;;;;;;;;5064790;28;20116;-84
2024/01/23 07:38:39;;;;;;;6.68;3.20;;;;;;;;;;5058737;28;20038;-84
2024/01/23 07:41:05;;;;;;;4.78;4.28;;;;;;;;;;5063993;28;20043;-83
2024/01/23 07:43:30;;;;;;;9.65;3.50;;;;;;;;;;5078156;28;20035;-83
2024/01/23 07:45:55;;;;;;;6.80;4.40;;;;;;;;;;5078562;28;20082;-82
2024/01/23 07:48:21;;;;;;;5.13;4.63;;;;;;;;;;5075559;28;20469;-83
2024/01/23 07:50:47;;;;;;;4.88;4.22;;;;;;;;;;5064435;28;20024;-83
2024/01/23 07:53:12;;;;;;;4.28;1.95;;;;;;;;;;5062278;28;20039;-84
2024/01/23 07:55:38;;;;;;;3.30;2.78;;;;;;;;;;5057958;28;20033;-83
2024/01/23 07:58:03;;;;;;;6.35;3.72;;;;;;;;;;5063287;28;20480;-83
2024/01/23 08:00:29;;;;;;;4.20;2.53;;;;;;;;;;5065497;28;20081;-84
2024/01/23 08:02:54;;;;;;;4.05;3.22;;;;;;;;;;5077252;28;20485;-84
2024/01/23 08:05:20;;;;;;;3.22;2.92;;;;;;;;;;5061012;28;20074;-84
2024/01/23 08:07:45;;;;;;;6.38;4.70;;;;;;;;;;5053961;28;20170;-83
2024/01/23 08:10:11;;;;;;;3.28;3.05;;;;;;;;;;5060890;28;20032;-84
2024/01/23 08:12:37;;;;;;;6.35;5.85;;;;;;;;;;5078085;28;20030;-83
2024/01/23 08:15:03;;;;;;;4.07;3.25;;;;;;;;;;5079843;28;20032;-84
2024/01/23 08:17:29;;;;;;;3.90;3.33;;;;;;;;;;5080720;28;20153;-84
2024/01/23 08:19:54;;;;;;;5.55;4.82;;;;;;;;;;5064393;28;20043;-84
2024/01/23 08:22:19;;;;;;;12.00;7.25;;;;;;;;;;5077437;28;20145;-84
2024/01/23 08:24:47;;;;;;;5.47;4.97;;;;;;;;;;5078952;28;20036;-84
2024/01/23 08:27:12;;;;;;;6.88;6.22;;;;;;;;;;5063998;28;20051;-85
2024/01/23 08:29:38;;;;;;;5.03;4.60;;;;;;;;;;5081598;28;20434;-84
2024/01/23 08:32:04;;;;;;;8.23;5.63;;;;;;;;;;5065078;28;20036;-85
2024/01/23 08:34:29;;;;;;;7.43;6.20;;;;;;;;;;5062911;28;20033;-84
2024/01/23 08:36:54;;;;;;;8.43;7.57;;;;;;;;;;5082176;28;20027;-85
2024/01/23 08:39:20;;;;;;;2.90;2.70;;;;;;;;;;5057131;28;20341;-85
2024/01/23 08:41:46;;;;;;;8.98;5.32;;;;;;;;;;5075806;28;20149;-84
2024/01/23 08:44:11;;;;;;;7.32;5.50;;;;;;;;;;5080246;28;20032;-85
2024/01/23 08:46:36;;;;;;;7.25;5.25;;;;;;;;;;5063268;28;20403;-86
2024/01/23 08:49:03;;;;;;;8.38;5.57;;;;;;;;;;5081215;28;20028;-86
2024/01/23 08:51:28;;;;;;;5.40;4.97;;;;;;;;;;5061203;28;20032;-85
2024/01/23 08:53:55;;;;;;;7.32;4.65;;;;;;;;;;5082358;28;20024;-86
2024/01/23 08:56:21;;;;;;;6.35;4.43;;;;;;;;;;5064579;28;20449;-83
2024/01/23 08:58:50;;;;;;;9.90;6.07;;;;;;;;;;5081080;28;20043;-84
2024/01/23 09:01:16;;;;;;;4.90;4.40;;;;;;;;;;5077781;28;20131;-85
2024/01/23 09:03:42;;;;;;;8.77;5.45;;;;;;;;;;5078108;28;20115;-87
2024/01/23 09:06:09;;;;;;;6.45;5.95;;;;;;;;;;5080109;28;20024;-86
2024/01/23 09:08:35;;;;;;;5.57;5.07;;;;;;;;;;5082982;28;20051;-85
2024/01/23 09:11:00;;;;;;;7.10;6.03;;;;;;;;;;5060473;28;20020;-85
2024/01/23 09:13:31;;;;;;;8.10;5.97;;;;;;;;;;5061770;28;20051;-84
2024/01/23 09:15:56;;;;;;;10.13;6.95;;;;;;;;;;5066525;28;20032;-84
2024/01/23 09:18:22;;;;;;;8.52;5.70;;;;;;;;;;5058273;28;20032;-85
2024/01/23 09:20:47;;;;;;;11.18;7.57;;;;;;;;;;5063834;28;20031;-84
2024/01/23 09:23:12;;;;;;;12.15;8.32;;;;;;;;;;5062336;28;20173;-84
2024/01/23 09:25:38;;;;;;;5.85;4.68;;;;;;;;;;5061420;28;20024;-84
2024/01/23 09:28:03;;;;;;;7.15;6.50;;;;;;;;;;5074692;28;20024;-83
2024/01/23 09:30:29;;;;;;;14.65;9.30;;;;;;;;;;5057850;28;20036;-84
2024/01/23 09:32:54;;;;;;;7.15;5.82;;;;;;;;;;5060154;28;20082;-83
2024/01/23 09:35:20;;;;;;;5.05;4.72;;;;;;;;;;5063448;28;20468;-85
2024/01/23 09:37:45;;;;;;;12.35;9.20;;;;;;;;;;5061584;28;20082;-83
2024/01/23 09:40:11;;;;;;;7.18;6.53;;;;;;;;;;5061231;28;20028;-82
2024/01/23 09:42:41;;;;;;;8.05;6.65;;;;;;;;;;5074449;28;20047;-83
2024/01/23 09:45:30;;;;;;;7.47;6.85;;;;;;;;;;5055690;28;20050;-83
2024/01/23 09:47:55;;;;;;;8.83;5.53;;;;;;;;;;5059078;28;20032;-82
2024/01/23 09:50:25;;;;;;;13.57;7.53;;;;;;;;;;5075257;28;20491;-83
2024/01/23 09:52:51;;;;;;;9.55;8.18;;;;;;;;;;5077937;28;20025;-83
2024/01/23 09:55:18;;;;;;;4.57;4.15;;;;;;;;;;5057940;28;20043;-84
2024/01/23 09:57:44;;;;;;;20.85;7.60;;;;;;;;;;5074150;28;20472;-83
2024/01/23 10:00:12;;;;;;;8.05;6.13;;;;;;;;;;5075549;28;20028;-84
2024/01/23 10:02:42;;;;;;;12.63;8.30;;;;;;;;;;5064780;28;20086;-81
2024/01/23 10:05:16;;;;;;;;;;;;;;;;;;5075856;28;20024;-83
2024/01/23 10:07:42;;;;;;;7.85;4.43;;;;;;;;;;5058601;28;19926;-81
2024/01/23 10:10:15;;;;;;;8.13;7.35;;;;;;;;;;5060553;28;20457;-81
2024/01/23 10:12:48;;;;;;;10.25;8.85;;;;;;;;;;5062150;28;20031;-82
2024/01/23 10:15:18;;;;;;;9.65;8.75;;;;;;;;;;5061623;28;20032;-80
2024/01/23 10:17:46;;;;;;;8.05;6.30;;;;;;;;;;5084648;28;20017;-82
2024/01/23 10:20:12;;;;;;;14.57;7.15;;;;;;;;;;5059583;28;20372;-81
2024/01/23 10:22:38;;;;;;;10.23;7.65;;;;;;;;;;5084955;28;20050;-84
2024/01/23 10:25:10;;;;;;;11.95;7.50;;;;;;;;;;5069980;28;20500;-82
2024/01/23 10:27:36;;;;;;;15.13;10.57;;;;;;;;;;5068667;28;20472;-83
2024/01/23 10:30:02;;;;;;;11.23;9.30;;;;;;;;;;5079957;28;20050;-82
2024/01/23 10:32:30;;;;;;;11.07;8.90;;;;;;;;;;5062561;28;20635;-82
2024/01/23 10:34:56;;;;;;;10.40;7.13;;;;;;;;;;5063998;28;20059;-83
2024/01/23 10:37:21;;;;;;;9.00;7.93;;;;;;;;;;5063552;28;20105;-83
2024/01/23 10:39:49;;;;;;;6.65;6.03;;;;;;;;;;5063531;28;20038;-83
2024/01/23 10:42:15;;;;;;;16.92;8.07;;;;;;;;;;5061734;28;20487;-83
2024/01/23 10:44:42;;;;;;;9.30;8.35;;;;;;;;;;5062443;28;20028;-82
2024/01/23 10:47:08;;;;;;;11.23;7.95;;;;;;;;;;5061945;28;20416;-82
2024/01/23 10:49:33;;;;;;;9.07;8.23;;;;;;;;;;5062973;28;20119;-82
2024/01/23 10:52:03;;;;;;;10.52;9.05;;;;;;;;;;5059392;28;20499;-84
2024/01/23 10:54:30;;;;;;;;;;;;;;;;;;5060678;28;20043;-83
2024/01/23 10:56:57;;;;;;;5.68;5.20;;;;;;;;;;5060256;28;19923;-83
2024/01/23 10:59:27;;;;;;;6.57;6.05;;;;;;;;;;5073073;28;20024;-83
2024/01/23 11:01:56;;;;;;;;;;;;;;;;;;5062645;28;20115;-84
2024/01/23 11:04:21;;;;;;;20.23;7.53;;;;;;;;;;5059610;28;19935;-85
2024/01/23 11:10:32;;;;;;;;;;;;;;;;;;;;;
2024/01/23 11:13:45;;;;;;;;;;;;;;;;;;;;;
2024/01/23 11:19:55;;;;;;;16.92;9.60;;;;;;;;;;5018036;28;20074;-85
2024/01/23 11:22:59;;;;;;;;;;;;;;;;;;;;;
2024/01/23 11:25:57;;;;;;;9.98;8.95;;;;;;;;;;5075053;28;20036;-84
2024/01/23 11:32:12;;;;;;;;;;;;;;;;;;;;;
2024/01/23 11:44:21;;;;;;;17.15;12.13;;;;;;;;;;5008783;28;20489;-84
2024/01/23 11:48:01;;;;;;;;;;;;;;;;;;;;;
2024/01/23 11:50:46;;;;;;;14.52;10.00;;;;;;;;;;5072451;28;20063;-85
2024/01/23 11:53:49;;;;;;;14.45;10.60;;;;;;;;;;5063172;28;20414;-84
2024/01/23 11:57:03;;;;;;;15.02;10.02;;;;;;;;;;5061154;28;20484;-86
2024/01/23 12:00:15;;;;;;;;;;;;;;;;;;;;;
2024/01/23 12:03:42;;;;;;;;;;;;;;;;;;;;;
2024/01/23 12:06:22;;;;;;;13.23;11.82;;;;;;;;;;5067381;28;20028;-84
2024/01/23 12:09:33;;;;;;;27.35;12.18;;;;;;;;;;5060876;28;20546;-83
2024/01/23 12:12:09;;;;;;;18.75;11.98;;;;;;;;;;5061075;28;20055;-85
2024/01/23 12:14:55;;;;;;;13.90;9.60;;;;;;;;;;5059424;28;20020;-84
2024/01/23 12:21:11;;;;;;;;;;;;;;;;;;;;;
2024/01/23 12:27:01;;;;;;;13.63;8.85;;;;;;;;;;5066364;28;20090;-84
2024/01/23 12:29:56;;;;;;;15.00;10.38;;;;;;;;;;5055841;28;20044;-83
2024/01/23 12:33:01;;;;;;;;;;;;;;;;;;;;;
2024/01/23 12:36:04;;;;;;;;;;;;;;;;;;;;;
2024/01/23 12:38:45;;;;;;;12.38;10.00;;;;;;;;;;5076774;28;20499;-82
2024/01/23 12:41:54;;;;;;;22.23;14.13;;;;;;;;;;5064087;28;20498;-84
2024/01/23 12:47:14;;;;;;;19.52;12.60;;;;;;;;;;5079283;28;20031;-84
2024/01/23 12:50:14;;;;;;;15.18;10.93;;;;;;;;;;5056477;28;20040;-85
2024/01/23 12:52:47;;;;;;;14.02;9.55;;;;;;;;;;5075700;28;20103;-85
2024/01/23 12:55:15;;;;;;;15.27;11.05;;;;;;;;;;5060901;28;20040;-84
2024/01/23 12:58:19;;;;;;;13.93;10.10;;;;;;;;;;5081085;28;20017;-82
2024/01/23 13:01:23;;;;;;;;;;;;;;;;;;;;;
2024/01/23 13:17:07;;;;;;;7.85;7.28;;;;;;;;;;5067048;28;20036;-83
2024/01/23 13:19:33;;;;;;;5.93;3.40;;;;;;;;;;5000489;28;20028;-84
2024/01/23 13:22:00;;;;;;;1.23;1.13;;;;;;;;;;5074730;28;20055;-82
2024/01/23 13:24:28;;;;;;;3.10;1.73;;;;;;;;;;5069333;28;20134;-83
2024/01/23 13:26:54;;;;;;;1.25;1.20;;;;;;;;;;5061869;28;20488;-82
2024/01/23 13:29:19;;;;;;;1.30;0.98;;;;;;;;;;5059147;28;20122;-83
2024/01/23 13:31:45;;;;;;;1.70;1.60;;;;;;;;;;5079673;28;20016;-80
2024/01/23 13:34:12;;;;;;;0.50;0.50;;;;;;;;;;5059134;28;20063;-81
2024/01/23 13:36:37;;;;;;;2.85;2.58;;;;;;;;;;5072277;28;20030;-83
2024/01/23 13:39:06;;;;;;;0.98;0.98;;;;;;;;;;5059523;28;20139;-81
2024/01/23 13:41:31;;;;;;;6.10;1.30;;;;;;;;;;5075599;28;20062;-79
2024/01/23 13:43:57;;;;;;;1.50;1.40;;;;;;;;;;5064229;28;20040;-81
2024/01/23 13:46:22;;;;;;;2.40;1.92;;;;;;;;;;5060998;28;20154;-81
2024/01/23 13:48:48;;;;;;;6.53;1.70;;;;;;;;;;5076863;28;20357;-83
2024/01/23 13:51:13;;;;;;;2.30;1.90;;;;;;;;;;5077383;28;20087;-86
2024/01/23 13:53:39;;;;;;;0.75;0.75;;;;;;;;;;5082895;28;20028;-84
2024/01/23 13:56:05;;;;;;;5.72;1.65;;;;;;;;;;5057347;28;20032;-82
2024/01/23 13:58:30;;;;;;;2.38;2.17;;;;;;;;;;5063433;28;20035;-83
2024/01/23 14:00:56;;;;;;;3.03;2.72;;;;;;;;;;5080765;28;20484;-86
2024/01/23 14:03:21;;;;;;;1.15;1.08;;;;;;;;;;5068411;28;20020;-85
2024/01/23 14:05:49;;;;;;;1.73;1.63;;;;;;;;;;5062320;28;20024;-85
2024/01/23 14:08:15;;;;;;;3.88;2.63;;;;;;;;;;5083088;28;20025;-83
2024/01/23 14:10:41;;;;;;;2.72;2.30;;;;;;;;;;5067826;28;20025;-84
2024/01/23 14:13:10;;;;;;;2.22;1.98;;;;;;;;;;5062744;28;20119;-86
2024/01/23 14:15:36;;;;;;;2.25;1.42;;;;;;;;;;5060482;28;20103;-83
2024/01/23 14:18:01;;;;;;;4.72;2.60;;;;;;;;;;5079703;28;20158;-80
2024/01/23 14:20:27;;;;;;;2.30;1.88;;;;;;;;;;5061612;28;20097;-85
2024/01/23 14:22:53;;;;;;;1.40;1.35;;;;;;;;;;5082156;28;20086;-82
2024/01/23 14:25:20;;;;;;;3.67;2.53;;;;;;;;;;5062314;28;20024;-84
2024/01/23 14:27:48;;;;;;;6.60;2.78;;;;;;;;;;5077431;28;20055;-85
2024/01/23 14:30:14;;;;;;;2.17;1.95;;;;;;;;;;5067083;28;20039;-86
2024/01/23 14:32:41;;;;;;;3.58;1.55;;;;;;;;;;5082726;28;20028;-82
2024/01/23 14:35:07;;;;;;;2.65;1.33;;;;;;;;;;5060159;28;20280;-85
2024/01/23 14:37:35;;;;;;;3.70;2.40;;;;;;;;;;5063360;28;20024;-82
2024/01/23 14:40:01;;;;;;;6.15;4.47;;;;;;;;;;5078759;28;20054;-83
2024/01/23 14:42:26;;;;;;;2.03;1.85;;;;;;;;;;5061418;28;20757;-85
2024/01/23 14:44:53;;;;;;;1.95;1.85;;;;;;;;;;5075516;28;20036;-82
2024/01/23 14:47:20;;;;;;;1.38;1.27;;;;;;;;;;5065596;28;20419;-87
2024/01/23 14:49:46;;;;;;;5.18;2.50;;;;;;;;;;5067164;28;20027;-85
2024/01/23 14:52:11;;;;;;;2.63;2.42;;;;;;;;;;5079888;28;20421;-87
2024/01/23 14:54:37;;;;;;;1.30;1.27;;;;;;;;;;5060988;28;20029;-85
2024/01/23 14:57:04;;;;;;;3.83;2.90;;;;;;;;;;5063835;28;20024;-83
2024/01/23 14:59:30;;;;;;;2.60;1.73;;;;;;;;;;5081241;28;20024;-82
2024/01/23 15:01:56;;;;;;;1.42;1.25;;;;;;;;;;5081845;28;20114;-83
2024/01/23 15:04:21;;;;;;;1.85;1.75;;;;;;;;;;5063396;28;20030;-81
2024/01/23 15:06:47;;;;;;;5.05;2.92;;;;;;;;;;5061335;28;20024;-84
2024/01/23 15:09:15;;;;;;;1.05;0.98;;;;;;;;;;5083355;28;20495;-88
2024/01/23 15:11:42;;;;;;;7.95;3.72;;;;;;;;;;5063768;28;20119;-84
2024/01/23 15:14:09;;;;;;;6.88;3.05;;;;;;;;;;5080396;28;20032;-81
2024/01/23 15:16:35;;;;;;;7.45;2.72;;;;;;;;;;5064554;28;20028;-82
2024/01/23 15:19:01;;;;;;;2.63;1.58;;;;;;;;;;5066301;28;20035;-82
2024/01/23 15:21:26;;;;;;;3.25;1.90;;;;;;;;;;5080621;28;20030;-83
2024/01/23 15:23:53;;;;;;;2.20;1.95;;;;;;;;;;5082819;28;20047;-85
2024/01/23 15:26:18;;;;;;;4.82;3.15;;;;;;;;;;5057939;28;20408;-85
2024/01/23 15:28:43;;;;;;;2.70;2.50;;;;;;;;;;5062862;28;20024;-83
2024/01/23 15:31:10;;;;;;;2.53;2.22;;;;;;;;;;5074750;28;20033;-85
2024/01/23 15:33:38;;;;;;;4.53;2.55;;;;;;;;;;5079048;28;20122;-83
2024/01/23 15:36:04;;;;;;;2.45;2.30;;;;;;;;;;5074571;28;20031;-86
2024/01/23 15:38:29;;;;;;;2.10;1.88;;;;;;;;;;5058567;28;20106;-85
2024/01/23 15:40:55;;;;;;;3.10;2.45;;;;;;;;;;5073239;28;20107;-83
2024/01/23 15:43:21;;;;;;;3.95;2.28;;;;;;;;;;5077582;28;20036;-85
2024/01/23 15:45:47;;;;;;;2.85;1.80;;;;;;;;;;5077008;28;20046;-85
2024/01/23 15:48:12;;;;;;;6.53;2.28;;;;;;;;;;5059007;28;20111;-85
2024/01/23 15:50:45;;;;;;;4.60;2.60;;;;;;;;;;5061175;28;20421;-85
2024/01/23 15:53:11;;;;;;;2.50;2.13;;;;;;;;;;5062052;28;20507;-82
2024/01/23 15:55:37;;;;;;;3.35;3.08;;;;;;;;;;5059578;28;20066;-84
2024/01/23 15:58:02;;;;;;;1.27;1.17;;;;;;;;;;5079180;28;20032;-83
2024/01/23 16:00:28;;;;;;;4.15;3.17;;;;;;;;;;5054656;28;20050;-82
2024/01/23 16:02:56;;;;;;;2.03;1.83;;;;;;;;;;5057931;28;20115;-84
2024/01/23 16:05:22;;;;;;;4.25;3.78;;;;;;;;;;5059812;28;20057;-85
2024/01/23 16:07:50;;;;;;;2.65;2.13;;;;;;;;;;5074761;28;20064;-84
2024/01/23 16:10:19;;;;;;;4.60;2.78;;;;;;;;;;5054606;28;20515;-82
2024/01/23 16:12:44;;;;;;;0.63;0.63;;;;;;;;;;5059134;28;20066;-82
2024/01/23 16:15:13;;;;;;;2.92;2.72;;;;;;;;;;5061330;28;20032;-86
2024/01/23 16:17:38;;;;;;;3.08;2.30;;;;;;;;;;5072734;28;20028;-82
2024/01/23 16:20:04;;;;;;;4.40;2.75;;;;;;;;;;5058573;28;20039;-83
2024/01/23 16:22:30;;;;;;;2.63;1.92;;;;;;;;;;5058104;28;20515;-82
2024/01/23 16:24:55;;;;;;;2.95;2.28;;;;;;;;;;5056851;28;20028;-80
2024/01/23 16:27:23;;;;;;;1.38;1.27;;;;;;;;;;5059461;28;20021;-80
2024/01/23 16:29:49;;;;;;;3.78;3.47;;;;;;;;;;5063299;28;20052;-82
2024/01/23 16:32:16;;;;;;;4.28;1.98;;;;;;;;;;5056778;28;20055;-83
2024/01/23 16:34:41;;;;;;;5.13;2.90;;;;;;;;;;5074502;28;20380;-82
2024/01/23 16:37:07;;;;;;;1.27;1.23;;;;;;;;;;5063279;28;20031;-82
2024/01/23 16:39:32;;;;;;;1.85;1.23;;;;;;;;;;5054438;28;20365;-80
2024/01/23 16:41:58;;;;;;;9.10;3.50;;;;;;;;;;5070904;28;20093;-80
2024/01/23 16:44:24;;;;;;;4.80;2.97;;;;;;;;;;5053124;28;20417;-82
2024/01/23 16:46:49;;;;;;;6.95;3.63;;;;;;;;;;5058249;28;20385;-80
2024/01/23 16:49:14;;;;;;;5.95;4.10;;;;;;;;;;5051957;28;20094;-81
2024/01/23 16:51:40;;;;;;;3.90;2.60;;;;;;;;;;5052930;28;20028;-80
2024/01/23 16:54:05;;;;;;;6.47;2.35;;;;;;;;;;5053301;28;20040;-82
2024/01/23 16:56:31;;;;;;;3.67;3.08;;;;;;;;;;5079886;28;20024;-84
2024/01/23 16:58:56;;;;;;;7.90;2.35;;;;;;;;;;5061616;28;20048;-81
2024/01/23 17:01:22;;;;;;;3.63;2.75;;;;;;;;;;5073507;28;20020;-81
2024/01/23 17:03:48;;;;;;;4.85;1.92;;;;;;;;;;5080747;28;20376;-83
2024/01/23 17:06:13;;;;;;;3.88;2.17;;;;;;;;;;5078575;28;20056;-82
2024/01/23 17:08:39;;;;;;;2.70;2.42;;;;;;;;;;5055161;28;20665;-80
2024/01/23 17:11:05;;;;;;;3.40;2.03;;;;;;;;;;5071398;28;20063;-84
2024/01/23 17:13:31;;;;;;;4.68;2.75;;;;;;;;;;5056493;28;20373;-82
2024/01/23 17:15:57;;;;;;;6.85;3.88;;;;;;;;;;5076593;28;20033;-84
2024/01/23 17:18:23;;;;;;;4.70;3.25;;;;;;;;;;5071675;28;20090;-82
2024/01/23 17:20:48;;;;;;;3.92;2.53;;;;;;;;;;5056973;28;20054;-84
2024/01/23 17:23:14;;;;;;;5.40;2.92;;;;;;;;;;5057004;28;20044;-82
2024/01/23 17:25:40;;;;;;;4.72;2.55;;;;;;;;;;5075259;28;20075;-84
2024/01/23 17:28:05;;;;;;;4.50;1.90;;;;;;;;;;5077576;28;20021;-84
2024/01/23 17:30:33;;;;;;;5.38;1.17;;;;;;;;;;5059331;28;20555;-85